createdAt,value
2022-12-11T00:01:15.223Z,63.49
2022-12-11T00:03:48.705Z,63.40
2022-12-11T00:06:23.505Z,63.52
2022-12-11T00:08:57.097Z,63.46
2022-12-11T00:11:30.322Z,63.13
2022-12-11T00:14:04.550Z,63.34
2022-12-11T00:16:37.561Z,63.29
2022-12-11T00:19:11.025Z,63.03
2022-12-11T00:21:44.698Z,63.25
2022-12-11T00:24:18.139Z,63.10
2022-12-11T00:26:51.091Z,63.18
2022-12-11T00:29:25.532Z,63.12
2022-12-11T00:31:59.269Z,63.11
2022-12-11T00:34:32.084Z,63.20
2022-12-11T00:37:08.849Z,63.25
2022-12-11T00:39:41.896Z,63.30
2022-12-11T00:42:14.565Z,63.29
2022-12-11T00:44:46.402Z,63.28
2022-12-11T00:47:18.653Z,63.24
2022-12-11T00:49:50.800Z,63.39
2022-12-11T00:52:25.269Z,63.71
2022-12-11T00:54:59.922Z,63.59
2022-12-11T00:57:31.779Z,63.46
2022-12-11T01:00:05.880Z,63.60
2022-12-11T01:02:39.717Z,63.55
2022-12-11T01:05:15.151Z,63.59
2022-12-11T01:07:48.717Z,63.43
2022-12-11T01:10:26.405Z,63.55
2022-12-11T01:13:01.804Z,63.59
2022-12-11T01:15:41.599Z,63.77
2022-12-11T01:18:15.385Z,63.68
2022-12-11T01:20:48.151Z,63.65
2022-12-11T01:23:20.680Z,63.80
2022-12-11T01:25:53.686Z,63.76
2022-12-11T01:28:27.896Z,63.95
2022-12-11T01:31:02.701Z,63.98
2022-12-11T01:33:35.298Z,63.98
2022-12-11T01:36:14.081Z,63.95
2022-12-11T01:38:48.238Z,64.00
2022-12-11T01:41:21.334Z,64.11
2022-12-11T01:44:06.530Z,64.23
2022-12-11T01:46:39.822Z,64.02
2022-12-11T01:49:15.276Z,63.88
2022-12-11T01:51:53.686Z,63.93
2022-12-11T01:54:29.181Z,63.74
2022-12-11T01:57:04.205Z,63.69
2022-12-11T01:59:42.269Z,63.74
2022-12-11T02:02:18.615Z,63.76
2022-12-11T02:04:50.850Z,63.85
2022-12-11T02:07:24.981Z,63.87
2022-12-11T02:09:57.831Z,63.88
2022-12-11T02:12:38.441Z,63.85
2022-12-11T02:15:16.931Z,63.91
2022-12-11T02:17:53.460Z,63.97
2022-12-11T02:20:31.007Z,64.08
2022-12-11T02:23:29.619Z,64.22
2022-12-11T02:26:13.678Z,64.25
2022-12-11T02:28:49.102Z,64.34
2022-12-11T02:31:31.084Z,64.42
2022-12-11T02:34:07.070Z,64.44
2022-12-11T02:36:45.612Z,64.23
2022-12-11T02:39:22.340Z,64.38
2022-12-11T02:41:54.906Z,64.34
2022-12-11T02:44:30.777Z,64.51
2022-12-11T02:47:03.939Z,64.47
2022-12-11T02:49:36.803Z,64.53
2022-12-11T02:52:16.529Z,64.63
2022-12-11T02:54:51.324Z,64.49
2022-12-11T02:57:27.192Z,64.42
2022-12-11T03:00:00.072Z,64.50
2022-12-11T03:02:35.384Z,64.27
2022-12-11T03:05:10.957Z,64.37
2022-12-11T03:07:46.012Z,64.20
2022-12-11T03:10:23.498Z,64.30
2022-12-11T03:12:57.853Z,64.39
2022-12-11T03:15:35.538Z,64.50
2022-12-11T03:18:15.391Z,64.47
2022-12-11T03:20:50.237Z,64.35
2022-12-11T03:23:26.928Z,64.61
2022-12-11T03:26:00.907Z,64.72
2022-12-11T03:28:38.474Z,64.50
2022-12-11T03:31:13.805Z,64.39
2022-12-11T03:33:50.351Z,64.45
2022-12-11T03:36:27.135Z,64.42
2022-12-11T03:39:05.582Z,64.35
2022-12-11T03:41:41.378Z,64.60
2022-12-11T03:44:15.067Z,64.60
2022-12-11T03:46:48.220Z,64.61
2022-12-11T03:49:23.509Z,64.41
2022-12-11T03:51:59.148Z,64.44
2022-12-11T03:54:34.387Z,64.35
2022-12-11T03:57:12.784Z,64.19
2022-12-11T03:59:45.366Z,64.05
2022-12-11T04:02:18.007Z,64.04
2022-12-11T04:04:51.621Z,64.09
2022-12-11T04:07:25.039Z,64.28
2022-12-11T04:09:58.441Z,64.34
2022-12-11T04:12:30.742Z,64.21
2022-12-11T04:15:04.303Z,64.41
2022-12-11T04:17:58.445Z,64.54
2022-12-11T04:20:51.636Z,64.52
2022-12-11T04:23:42.162Z,64.65
2022-12-11T04:26:16.731Z,64.87
2022-12-11T04:28:50.125Z,64.94
2022-12-11T04:31:24.897Z,64.86
2022-12-11T04:33:58.176Z,64.76
2022-12-11T04:36:30.420Z,64.75
2022-12-11T04:39:04.571Z,64.59
2022-12-11T04:41:39.046Z,64.58
2022-12-11T04:44:11.131Z,64.45
2022-12-11T04:46:44.698Z,64.51
2022-12-11T04:49:17.527Z,64.49
2022-12-11T04:51:50.915Z,64.69
2022-12-11T04:54:26.007Z,64.43
2022-12-11T04:56:58.750Z,64.29
2022-12-11T04:59:32.321Z,64.50
2022-12-11T05:02:06.568Z,64.46
2022-12-11T05:04:40.584Z,64.60
2022-12-11T05:07:15.299Z,64.53
2022-12-11T05:09:50.674Z,64.42
2022-12-11T05:12:23.927Z,64.60
2022-12-11T05:14:56.684Z,64.56
2022-12-11T05:17:28.875Z,64.45
2022-12-11T05:20:01.578Z,64.61
2022-12-11T05:22:35.005Z,64.46
2022-12-11T05:25:09.520Z,64.61
2022-12-11T05:27:42.652Z,64.42
2022-12-11T05:30:16.285Z,64.40
2022-12-11T05:32:48.546Z,64.36
2022-12-11T05:35:24.064Z,64.26
2022-12-11T05:37:57.000Z,64.14
2022-12-11T05:40:30.073Z,64.27
2022-12-11T05:43:03.644Z,64.33
2022-12-11T05:45:36.963Z,64.31
2022-12-11T05:48:09.877Z,64.33
2022-12-11T05:50:43.098Z,64.54
2022-12-11T05:53:15.593Z,64.32
2022-12-11T05:55:48.975Z,64.26
2022-12-11T05:58:23.302Z,64.18
2022-12-11T06:00:55.382Z,64.12
2022-12-11T06:03:27.383Z,64.16
2022-12-11T06:06:05.383Z,64.14
2022-12-11T06:08:38.632Z,63.96
2022-12-11T06:11:11.961Z,64.00
2022-12-11T06:13:47.086Z,63.81
2022-12-11T06:16:22.850Z,63.50
2022-12-11T06:18:58.194Z,63.68
2022-12-11T06:21:34.248Z,63.73
2022-12-11T06:24:11.231Z,63.72
2022-12-11T06:26:45.635Z,63.88
2022-12-11T06:29:18.875Z,63.83
2022-12-11T06:31:51.790Z,63.76
2022-12-11T06:34:25.373Z,63.73
2022-12-11T06:36:57.939Z,63.62
2022-12-11T06:39:34.345Z,63.53
2022-12-11T06:42:07.693Z,63.63
2022-12-11T06:44:39.532Z,63.51
2022-12-11T06:47:13.856Z,63.57
2022-12-11T06:49:49.311Z,63.70
2022-12-11T06:52:22.767Z,63.80
2022-12-11T06:54:54.890Z,63.68
2022-12-11T06:57:27.627Z,63.86
2022-12-11T06:59:59.860Z,63.88
2022-12-11T07:02:33.146Z,63.81
2022-12-11T07:05:05.928Z,64.02
2022-12-11T07:07:38.743Z,64.13
2022-12-11T07:10:14.557Z,63.89
2022-12-11T07:12:48.199Z,63.89
2022-12-11T07:15:21.041Z,64.03
2022-12-11T07:17:54.326Z,64.04
2022-12-11T07:20:27.605Z,64.08
2022-12-11T07:23:00.583Z,63.84
2022-12-11T07:25:33.642Z,63.76
2022-12-11T07:28:09.127Z,63.78
2022-12-11T07:30:43.275Z,63.85
2022-12-11T07:33:18.958Z,64.12
2022-12-11T07:35:51.743Z,64.08
2022-12-11T07:38:25.066Z,64.04
2022-12-11T07:41:03.785Z,63.80
2022-12-11T07:43:36.372Z,63.57
2022-12-11T07:46:12.579Z,63.36
2022-12-11T07:48:46.734Z,63.19
2022-12-11T07:51:20.518Z,63.39
2022-12-11T07:53:55.971Z,63.29
2022-12-11T07:56:29.135Z,63.11
2022-12-11T07:59:03.850Z,63.12
2022-12-11T08:01:37.591Z,63.57
2022-12-11T08:04:12.197Z,63.69
2022-12-11T08:06:46.038Z,63.42
2022-12-11T08:09:24.367Z,63.32
2022-12-11T08:11:59.752Z,63.67
2022-12-11T08:14:33.940Z,63.73
2022-12-11T08:17:07.508Z,63.76
2022-12-11T08:19:40.297Z,63.71
2022-12-11T08:22:14.520Z,63.10
2022-12-11T08:24:47.487Z,63.03
2022-12-11T08:27:21.926Z,63.13
2022-12-11T08:29:54.063Z,63.03
2022-12-11T08:32:27.593Z,62.91
2022-12-11T08:35:04.353Z,62.89
2022-12-11T08:37:36.790Z,62.59
2022-12-11T08:40:12.575Z,62.35
2022-12-11T08:42:45.161Z,62.68
2022-12-11T08:45:19.228Z,62.92
2022-12-11T08:47:54.498Z,62.59
2022-12-11T08:50:27.078Z,62.26
2022-12-11T08:53:00.678Z,62.15
2022-12-11T08:55:37.480Z,61.94
2022-12-11T08:58:09.490Z,62.29
2022-12-11T09:00:44.579Z,62.10
2022-12-11T09:03:18.213Z,62.32
2022-12-11T09:05:50.447Z,62.25
2022-12-11T09:08:23.569Z,62.31
2022-12-11T09:10:56.628Z,62.33
2022-12-11T09:13:30.440Z,62.56
2022-12-11T09:16:04.988Z,62.47
2022-12-11T09:18:38.479Z,62.21
2022-12-11T09:21:14.116Z,62.38
2022-12-11T09:23:46.900Z,62.44
2022-12-11T09:26:20.424Z,62.28
2022-12-11T09:28:54.921Z,62.21
2022-12-11T09:31:28.753Z,61.79
2022-12-11T09:34:02.068Z,61.51
2022-12-11T09:36:37.151Z,61.83
2022-12-11T09:39:12.437Z,61.00
2022-12-11T09:41:51.322Z,60.99
2022-12-11T09:44:35.715Z,60.62
2022-12-11T09:47:21.234Z,59.85
2022-12-11T09:49:58.546Z,60.24
2022-12-11T09:52:36.556Z,60.20
2022-12-11T09:55:16.497Z,60.24
2022-12-11T09:57:55.664Z,60.39
2022-12-11T10:00:33.160Z,60.41
2022-12-11T10:03:29.384Z,60.65
2022-12-11T10:06:08.292Z,60.16
2022-12-11T10:08:46.774Z,60.52
2022-12-11T10:11:32.271Z,60.74
2022-12-11T10:14:10.270Z,60.92
2022-12-11T10:16:47.310Z,61.00
2022-12-11T10:19:23.211Z,60.86
2022-12-11T10:21:56.492Z,60.70
2022-12-11T10:25:09.471Z,60.59
2022-12-11T10:27:31.559Z,60.43
2022-12-11T10:30:18.486Z,60.44
2022-12-11T10:33:05.170Z,60.49
2022-12-11T10:35:40.550Z,60.13
2022-12-11T10:38:23.665Z,60.38
2022-12-11T10:40:59.613Z,60.04
2022-12-11T10:43:41.697Z,59.89
2022-12-11T10:46:19.943Z,60.39
2022-12-11T10:48:55.486Z,60.45
2022-12-11T10:51:35.158Z,60.28
2022-12-11T10:54:18.935Z,60.63
2022-12-11T10:56:54.965Z,60.67
2022-12-11T10:59:30.032Z,60.21
2022-12-11T11:02:04.032Z,60.31
2022-12-11T11:04:38.556Z,59.93
2022-12-11T11:07:20.776Z,60.07
2022-12-11T11:09:56.447Z,60.10
2022-12-11T11:12:31.879Z,60.04
2022-12-11T11:15:07.959Z,60.02
2022-12-11T11:17:55.085Z,60.10
2022-12-11T11:20:30.501Z,60.54
2022-12-11T11:23:10.539Z,60.89
2022-12-11T11:25:54.273Z,59.28
2022-12-11T11:28:29.476Z,59.03
2022-12-11T11:31:05.930Z,59.36
2022-12-11T11:33:46.024Z,59.52
2022-12-11T11:36:24.233Z,59.56
2022-12-11T11:39:08.890Z,59.08
2022-12-11T11:41:48.237Z,58.68
2022-12-11T11:44:25.229Z,59.02
2022-12-11T11:47:05.453Z,58.90
2022-12-11T11:49:52.302Z,58.72
2022-12-11T11:52:31.071Z,59.18
2022-12-11T11:55:10.276Z,59.10
2022-12-11T11:57:51.061Z,59.50
2022-12-11T12:00:34.378Z,59.65
2022-12-11T12:03:14.049Z,59.25
2022-12-11T12:05:51.740Z,59.55
2022-12-11T12:08:31.387Z,59.66
2022-12-11T12:11:11.183Z,60.10
2022-12-11T12:13:50.478Z,60.21
2022-12-11T12:16:55.897Z,60.04
2022-12-11T12:19:45.353Z,59.58
2022-12-11T12:22:28.653Z,59.63
2022-12-11T12:25:13.635Z,59.96
2022-12-11T12:27:53.463Z,59.93
2022-12-11T12:30:26.686Z,64.65
2022-12-11T12:33:18.431Z,62.14
2022-12-11T12:36:02.081Z,58.80
2022-12-11T12:38:50.117Z,58.92
2022-12-11T12:41:29.634Z,59.13
2022-12-11T12:44:11.861Z,59.34
2022-12-11T12:46:54.525Z,59.56
2022-12-11T12:49:39.257Z,59.74
2022-12-11T12:52:17.361Z,59.43
2022-12-11T12:55:06.769Z,59.33
2022-12-11T12:57:40.670Z,59.61
2022-12-11T13:00:26.861Z,59.74
2022-12-11T13:03:00.618Z,59.99
2022-12-11T13:05:37.273Z,60.23
2022-12-11T13:08:10.526Z,60.51
2022-12-11T13:10:45.283Z,60.55
2022-12-11T13:13:35.349Z,60.62
2022-12-11T13:16:27.293Z,60.58
2022-12-11T13:19:01.354Z,60.28
2022-12-11T13:21:38.398Z,60.42
2022-12-11T13:24:27.912Z,60.38
2022-12-11T13:27:12.236Z,60.50
2022-12-11T13:29:47.400Z,60.43
2022-12-11T13:32:29.087Z,60.28
2022-12-11T13:35:06.260Z,60.38
2022-12-11T13:37:42.752Z,60.65
2022-12-11T13:40:20.961Z,60.75
2022-12-11T13:42:55.942Z,60.81
2022-12-11T13:45:31.035Z,60.96
2022-12-11T13:48:05.152Z,61.13
2022-12-11T13:50:38.020Z,60.96
2022-12-11T13:53:19.248Z,60.83
2022-12-11T13:56:00.580Z,60.94
2022-12-11T13:58:35.417Z,61.13
2022-12-11T14:01:11.491Z,61.29
2022-12-11T14:03:49.532Z,61.40
2022-12-11T14:06:22.616Z,61.49
2022-12-11T14:08:58.144Z,61.83
2022-12-11T14:11:32.623Z,61.72
2022-12-11T14:14:08.824Z,61.94
2022-12-11T14:16:41.565Z,61.81
2022-12-11T14:19:19.621Z,61.74
2022-12-11T14:22:02.552Z,61.79
2022-12-11T14:24:35.570Z,62.00
2022-12-11T14:27:20.210Z,62.07
2022-12-11T14:29:53.697Z,61.98
2022-12-11T14:32:32.104Z,61.95
2022-12-11T14:35:06.245Z,61.78
2022-12-11T14:37:40.233Z,61.53
2022-12-11T14:40:21.779Z,61.90
2022-12-11T14:43:00.336Z,62.10
2022-12-11T14:45:37.203Z,62.38
2022-12-11T14:48:12.163Z,62.51
2022-12-11T14:50:50.451Z,62.74
2022-12-11T14:53:25.533Z,62.66
2022-12-11T14:56:03.840Z,62.55
2022-12-11T14:58:40.953Z,62.57
2022-12-11T15:01:26.791Z,62.19
2022-12-11T15:04:18.484Z,62.13
2022-12-11T15:06:52.443Z,61.67
2022-12-11T15:09:30.005Z,61.44
2022-12-11T15:12:11.765Z,61.44
2022-12-11T15:14:49.589Z,61.49
2022-12-11T15:17:23.189Z,61.66
2022-12-11T15:19:57.392Z,61.59
2022-12-11T15:22:35.423Z,61.48
2022-12-11T15:25:18.884Z,61.59
2022-12-11T15:27:54.137Z,61.76
2022-12-11T15:30:33.764Z,61.56
2022-12-11T15:33:24.379Z,61.61
2022-12-11T15:35:59.377Z,61.45
2022-12-11T15:38:43.796Z,61.34
2022-12-11T15:41:21.516Z,61.11
2022-12-11T15:43:58.941Z,61.03
2022-12-11T15:46:37.778Z,61.00
2022-12-11T15:49:15.199Z,61.04
2022-12-11T15:51:48.263Z,60.92
2022-12-11T15:54:21.740Z,61.08
2022-12-11T15:56:56.171Z,61.19
2022-12-11T15:59:28.968Z,61.16
2022-12-11T16:02:02.732Z,61.08
2022-12-11T16:04:35.933Z,61.18
2022-12-11T16:07:10.611Z,61.05
2022-12-11T16:09:45.065Z,61.11
2022-12-11T16:12:19.149Z,61.03
2022-12-11T16:14:52.988Z,60.92
2022-12-11T16:17:27.113Z,60.97
2022-12-11T16:20:00.186Z,61.04
2022-12-11T16:22:33.263Z,60.61
2022-12-11T16:25:06.946Z,60.52
2022-12-11T16:27:40.757Z,60.69
2022-12-11T16:30:16.692Z,60.20
2022-12-11T16:32:48.672Z,60.35
2022-12-11T16:35:23.921Z,60.89
2022-12-11T16:37:59.530Z,61.01
2022-12-11T16:40:32.267Z,60.89
2022-12-11T16:43:08.927Z,61.04
2022-12-11T16:45:43.131Z,61.51
2022-12-11T16:48:17.503Z,61.23
2022-12-11T16:50:57.697Z,61.22
2022-12-11T16:53:55.476Z,61.19
2022-12-11T16:56:34.965Z,61.00
2022-12-11T16:59:43.270Z,61.28
2022-12-11T17:02:36.920Z,61.23
2022-12-11T17:05:10.837Z,61.26
2022-12-11T17:07:45.322Z,60.95
2022-12-11T17:10:19.566Z,60.99
2022-12-11T17:13:18.080Z,61.11
2022-12-11T17:16:07.875Z,61.05
2022-12-11T17:18:41.661Z,61.28
2022-12-11T17:21:16.246Z,60.78
2022-12-11T17:23:51.878Z,60.72
2022-12-11T17:26:25.688Z,60.69
2022-12-11T17:28:59.187Z,60.55
2022-12-11T17:31:33.052Z,60.59
2022-12-11T17:34:06.841Z,60.68
2022-12-11T17:36:40.472Z,60.69
2022-12-11T17:39:12.417Z,60.72
2022-12-11T17:41:46.797Z,61.10
2022-12-11T17:44:19.157Z,60.91
2022-12-11T17:46:53.800Z,60.74
2022-12-11T17:49:27.345Z,60.76
2022-12-11T17:52:04.021Z,60.84
2022-12-11T17:54:36.614Z,60.92
2022-12-11T17:57:10.388Z,60.89
2022-12-11T17:59:44.324Z,60.77
2022-12-11T18:02:17.746Z,60.95
2022-12-11T18:04:52.237Z,60.60
2022-12-11T18:07:26.691Z,60.78
2022-12-11T18:10:00.331Z,60.96
2022-12-11T18:12:37.286Z,60.73
2022-12-11T18:15:12.180Z,60.89
2022-12-11T18:17:47.889Z,60.66
2022-12-11T18:20:21.117Z,60.77
2022-12-11T18:22:53.366Z,60.82
2022-12-11T18:25:28.115Z,60.77
2022-12-11T18:28:01.471Z,60.80
2022-12-11T18:30:36.801Z,60.88
2022-12-11T18:33:11.206Z,60.91
2022-12-11T18:35:44.995Z,60.85
2022-12-11T18:38:17.822Z,60.76
2022-12-11T18:40:52.752Z,60.38
2022-12-11T18:43:25.554Z,60.42
2022-12-11T18:46:01.814Z,60.75
2022-12-11T18:48:34.556Z,60.76
2022-12-11T18:51:11.466Z,60.67
2022-12-11T18:53:44.674Z,60.74
2022-12-11T18:56:19.474Z,60.73
2022-12-11T18:58:52.606Z,60.60
2022-12-11T19:01:27.536Z,60.65
2022-12-11T19:04:10.435Z,60.56
2022-12-11T19:06:45.282Z,60.70
2022-12-11T19:09:18.121Z,60.61
2022-12-11T19:11:50.999Z,60.28
2022-12-11T19:14:27.690Z,60.60
2022-12-11T19:17:00.559Z,60.37
2022-12-11T19:19:34.570Z,60.58
2022-12-11T19:22:08.041Z,60.50
2022-12-11T19:24:41.078Z,60.32
2022-12-11T19:27:14.675Z,60.38
2022-12-11T19:29:48.155Z,60.17
2022-12-11T19:32:21.407Z,60.10
2022-12-11T19:34:59.698Z,59.94
2022-12-11T19:37:33.934Z,60.24
2022-12-11T19:40:10.015Z,60.36
2022-12-11T19:42:43.754Z,60.48
2022-12-11T19:45:16.240Z,60.27
2022-12-11T19:47:48.911Z,60.42
2022-12-11T19:50:22.326Z,60.25
2022-12-11T19:52:54.875Z,60.32
2022-12-11T19:55:27.388Z,60.37
2022-12-11T19:57:59.834Z,60.61
2022-12-11T20:00:32.977Z,60.48
2022-12-11T20:03:06.447Z,60.36
2022-12-11T20:05:41.543Z,60.54
2022-12-11T20:11:17.340Z,60.27
2022-12-11T20:13:57.341Z,60.37
2022-12-11T20:17:02.050Z,60.27
2022-12-11T20:19:27.756Z,60.25
2022-12-11T20:22:02.555Z,60.37
2022-12-11T20:24:34.926Z,60.14
2022-12-11T20:27:07.707Z,60.26
2022-12-11T20:29:40.523Z,60.17
2022-12-11T20:32:14.286Z,60.20
2022-12-11T20:34:48.663Z,60.33
2022-12-11T20:37:21.601Z,60.22
2022-12-11T20:39:55.461Z,60.05
2022-12-11T20:42:30.238Z,59.85
2022-12-11T20:45:02.062Z,60.15
2022-12-11T20:47:37.339Z,60.18
2022-12-11T20:50:11.514Z,59.95
2022-12-11T20:52:46.620Z,59.90
2022-12-11T20:55:19.269Z,59.78
2022-12-11T20:57:52.569Z,60.01
2022-12-11T21:00:26.795Z,60.01
2022-12-11T21:02:58.739Z,59.82
2022-12-11T21:05:36.193Z,60.14
2022-12-11T21:08:10.245Z,59.98
2022-12-11T21:10:46.438Z,60.09
2022-12-11T21:13:20.526Z,60.15
2022-12-11T21:15:56.727Z,60.02
2022-12-11T21:18:29.470Z,59.89
2022-12-11T21:21:03.071Z,60.16
2022-12-11T21:23:36.903Z,59.93
2022-12-11T21:26:09.936Z,59.81
2022-12-11T21:28:42.823Z,60.11
2022-12-11T21:31:18.047Z,60.07
2022-12-11T21:33:51.962Z,60.29
2022-12-11T21:36:26.109Z,59.85
2022-12-11T21:39:00.964Z,60.12
2022-12-11T21:41:34.352Z,60.16
2022-12-11T21:47:04.946Z,60.37
2022-12-11T21:49:39.848Z,60.26
2022-12-11T21:52:14.226Z,60.09
2022-12-11T21:54:47.831Z,60.16
2022-12-11T21:57:26.484Z,60.17
2022-12-11T22:00:05.756Z,60.05
2022-12-11T22:02:41.069Z,60.29
2022-12-11T22:05:17.216Z,60.31
2022-12-11T22:07:50.689Z,60.18
2022-12-11T22:10:24.011Z,60.25
2022-12-11T22:12:59.644Z,60.19
2022-12-11T22:15:34.705Z,60.25
2022-12-11T22:18:07.635Z,60.17
2022-12-11T22:20:39.688Z,60.18
2022-12-11T22:23:11.777Z,60.19
2022-12-11T22:25:45.537Z,59.93
2022-12-11T22:28:21.037Z,59.99
2022-12-11T22:30:55.738Z,60.03
2022-12-11T22:33:28.527Z,59.98
2022-12-11T22:36:01.105Z,60.06
2022-12-11T22:38:34.860Z,60.05
2022-12-11T22:41:16.253Z,60.12
2022-12-11T22:43:52.219Z,60.17
2022-12-11T22:46:26.948Z,60.04
2022-12-11T22:49:01.365Z,59.99
2022-12-11T22:51:35.784Z,60.22
2022-12-11T22:54:09.099Z,60.05
2022-12-11T22:56:44.140Z,60.21
2022-12-11T22:59:16.653Z,59.96
2022-12-11T23:01:48.782Z,59.97
2022-12-11T23:04:22.358Z,60.13
2022-12-11T23:06:57.114Z,60.39
2022-12-11T23:09:30.712Z,60.16
2022-12-11T23:12:05.801Z,60.14
2022-12-11T23:14:39.322Z,60.45
2022-12-11T23:17:12.034Z,60.43
2022-12-11T23:19:46.167Z,60.53
2022-12-11T23:22:18.823Z,60.38
2022-12-11T23:24:51.960Z,60.45
2022-12-11T23:27:25.209Z,60.45
2022-12-11T23:29:58.981Z,60.53
2022-12-11T23:32:30.802Z,60.43
2022-12-11T23:35:05.015Z,60.62
2022-12-11T23:37:40.583Z,60.63
2022-12-11T23:40:15.349Z,60.55
2022-12-11T23:42:47.140Z,60.65
2022-12-11T23:45:21.164Z,60.66
2022-12-11T23:47:54.335Z,60.54
2022-12-11T23:50:27.901Z,60.67
2022-12-11T23:53:02.346Z,60.69
2022-12-11T23:55:36.017Z,60.61
2022-12-11T23:58:07.933Z,60.56
